Shingobee, Minnesota
Current Conditions -  °F | °C
As of 12:15 AM on Monday 26 Jan 2015 (Local Time) from KY49 Reporting Station
Overcast Overcast  
Wind Chill: 14°   Ceiling: 2500
Heat Index: 24°   Visibility: 10mi
Dew Point: 17°   Wind: 12mph
Humidity: 75%   Direction: 220°SW
Pressure: 29.76"   Gusts: 16mph
Location:  47.0507°N, 94.6083°W
Report Text: KY49 260615Z AUTO 22010G14KT 10SM SCT015 BKN025 OVC080 M04/M08 A2976 RMK AO2 T10421081
Loading
Personal Weather Stations






























Interactive Weather Map New forecast layout! Learn more

10-Day Weather Forecast

Advertisements
Track Severe Weather on mobile